Time;durP1;ratioP1;P1;durP2;ratioP2;P2;SDS_P1;SDS_P2;PMS_P1;PMS_P2;Temp;Humidity;BMP_temperature;BMP_pressure;BME280_temperature;BME280_humidity;BME280_pressure;Samples;Min_cycle;Max_cycle;Signal;HPM_P1;HPM_P2
2022/07/04 00:00:23;;;;;;;11.05;5.32;;;10.60;99.90;;;;;;5048062;28;20043;-46
2022/07/04 00:02:50;;;;;;;9.07;5.32;;;10.30;99.90;;;;;;5048278;28;20461;-46
2022/07/04 00:05:17;;;;;;;12.02;6.13;;;11.70;99.90;;;;;;5048268;28;20037;-46
2022/07/04 00:07:46;;;;;;;7.93;5.03;;;10.50;99.90;;;;;;5047813;28;20372;-47
2022/07/04 00:10:15;;;;;;;11.63;6.10;;;10.40;99.90;;;;;;5047391;28;20053;-46
2022/07/04 00:12:40;;;;;;;11.25;5.30;;;10.40;99.90;;;;;;5048042;28;20048;-45
2022/07/04 00:15:07;;;;;;;8.73;5.75;;;10.10;99.90;;;;;;5048419;28;20356;-46
2022/07/04 00:17:33;;;;;;;7.53;4.85;;;10.30;99.90;;;;;;5047878;28;20068;-47
2022/07/04 00:19:59;;;;;;;13.40;6.13;;;11.00;99.90;;;;;;5048301;28;20056;-47
2022/07/04 00:22:25;;;;;;;9.85;5.32;;;10.70;99.90;;;;;;5048221;28;20355;-47
2022/07/04 00:24:51;;;;;;;12.73;5.03;;;10.80;99.90;;;;;;5048354;28;20498;-45
2022/07/04 00:27:17;;;;;;;7.63;4.70;;;10.20;99.90;;;;;;5048255;28;20098;-45
2022/07/04 00:29:42;;;;;;;7.07;4.57;;;10.10;99.90;;;;;;5048244;28;20041;-46
2022/07/04 00:32:08;;;;;;;7.90;4.47;;;10.10;99.90;;;;;;5048158;28;20037;-46
2022/07/04 00:34:34;;;;;;;10.43;4.88;;;10.00;99.90;;;;;;5046964;28;20044;-46
2022/07/04 00:37:00;;;;;;;10.82;6.10;;;10.00;99.90;;;;;;5048022;28;20163;-46
2022/07/04 00:39:26;;;;;;;15.65;6.50;;;10.80;99.90;;;;;;5047967;28;20156;-45
2022/07/04 00:41:52;;;;;;;9.48;4.85;;;9.90;99.90;;;;;;5047572;28;20360;-47
2022/07/04 00:44:17;;;;;;;8.35;5.05;;;9.80;99.90;;;;;;5047979;28;20047;-46
2022/07/04 00:46:45;;;;;;;8.18;4.25;;;9.60;99.90;;;;;;5047526;28;20407;-46
2022/07/04 00:49:12;;;;;;;9.98;4.70;;;9.80;99.90;;;;;;5047760;28;20033;-45
2022/07/04 00:51:39;;;;;;;12.30;4.65;;;10.20;99.90;;;;;;5047111;28;20550;-46
2022/07/04 00:54:07;;;;;;;8.27;5.00;;;9.70;99.90;;;;;;5047560;28;20040;-45
2022/07/04 00:56:35;;;;;;;10.48;5.55;;;9.70;99.90;;;;;;5047170;28;20102;-46
2022/07/04 00:59:02;;;;;;;13.13;4.97;;;9.50;99.90;;;;;;5047598;28;20045;-47
2022/07/04 01:01:27;;;;;;;8.73;4.75;;;9.60;99.90;;;;;;5047238;28;20120;-46
2022/07/04 01:03:53;;;;;;;6.35;4.65;;;10.20;99.90;;;;;;5047379;28;20132;-46
2022/07/04 01:06:19;;;;;;;8.93;5.07;;;9.50;99.90;;;;;;5047303;28;20041;-46
2022/07/04 01:08:46;;;;;;;9.95;4.85;;;9.60;99.90;;;;;;5047448;28;20086;-46
2022/07/04 01:11:12;;;;;;;10.25;5.07;;;9.60;99.90;;;;;;5046867;28;20068;-46
2022/07/04 01:13:40;;;;;;;11.20;5.72;;;9.60;99.90;;;;;;5047313;28;20064;-46
2022/07/04 01:16:06;;;;;;;7.80;5.47;;;10.10;99.90;;;;;;5047511;28;20044;-46
2022/07/04 01:18:32;;;;;;;10.73;5.72;;;10.10;99.90;;;;;;5047487;28;20048;-46
2022/07/04 01:20:58;;;;;;;14.82;5.63;;;9.40;99.90;;;;;;5047633;28;20045;-46
2022/07/04 01:23:23;;;;;;;11.30;5.60;;;10.40;99.90;;;;;;5047500;28;20045;-46
2022/07/04 01:25:50;;;;;;;9.88;5.63;;;10.30;99.90;;;;;;5047365;28;20501;-46
2022/07/04 01:28:20;;;;;;;13.25;6.80;;;9.40;99.90;;;;;;5047303;28;20546;-46
2022/07/04 01:30:46;;;;;;;14.75;6.18;;;9.40;99.90;;;;;;5047218;28;20449;-46
2022/07/04 01:33:12;;;;;;;11.13;6.18;;;9.40;99.90;;;;;;5047615;28;20060;-46
2022/07/04 01:35:38;;;;;;;10.73;5.25;;;9.40;99.90;;;;;;5047510;28;20484;-46
2022/07/04 01:38:03;;;;;;;12.50;6.05;;;9.40;99.90;;;;;;5047469;28;20044;-46
2022/07/04 01:40:29;;;;;;;12.35;6.00;;;9.40;99.90;;;;;;5046732;28;20086;-46
2022/07/04 01:42:55;;;;;;;10.13;5.97;;;9.80;99.90;;;;;;5046441;28;20402;-46
2022/07/04 01:45:21;;;;;;;9.20;6.05;;;9.40;99.90;;;;;;5048154;28;20041;-46
2022/07/04 01:47:46;;;;;;;14.15;6.75;;;9.10;99.90;;;;;;5050755;28;20087;-47
2022/07/04 01:50:13;;;;;;;15.15;7.05;;;9.40;99.90;;;;;;5051050;28;20064;-46
2022/07/04 01:52:40;;;;;;;12.45;6.88;;;9.40;99.90;;;;;;5050913;28;20079;-46
2022/07/04 01:55:07;;;;;;;11.50;6.57;;;9.40;99.90;;;;;;5050949;28;20037;-46
2022/07/04 01:57:32;;;;;;;15.63;7.30;;;9.40;99.90;;;;;;5051182;28;20048;-46
2022/07/04 02:02:43;;;;;;;14.80;6.80;;;9.30;99.90;;;;;;5050630;28;20111;-46
2022/07/04 02:05:09;;;;;;;13.48;7.47;;;9.40;99.90;;;;;;5050739;28;20040;-46
2022/07/04 02:07:34;;;;;;;13.05;6.78;;;9.40;99.90;;;;;;5050417;28;20041;-46
2022/07/04 02:10:00;;;;;;;10.43;6.10;;;10.30;99.90;;;;;;5050201;28;20582;-46
2022/07/04 02:15:10;;;;;;;12.13;6.47;;;10.40;99.90;;;;;;5050564;28;20060;-46
2022/07/04 02:17:36;;;;;;;11.18;6.03;;;9.50;99.90;;;;;;5050399;28;20383;-46
2022/07/04 02:20:04;;;;;;;10.93;7.10;;;10.60;99.90;;;;;;5050779;28;20087;-46
2022/07/04 02:22:30;;;;;;;12.00;6.55;;;9.40;99.90;;;;;;5050301;28;20041;-46
2022/07/04 02:24:56;;;;;;;12.23;7.45;;;9.40;99.90;;;;;;5050296;28;20037;-48
2022/07/04 02:27:22;;;;;;;15.75;8.00;;;9.30;99.90;;;;;;5050157;28;20122;-46
2022/07/04 02:29:47;;;;;;;18.20;8.90;;;9.40;99.90;;;;;;5050251;28;20087;-46
2022/07/04 02:32:13;;;;;;;11.90;7.20;;;10.20;99.90;;;;;;5050036;28;20045;-48
2022/07/04 02:34:39;;;;;;;15.38;7.22;;;9.50;99.90;;;;;;5050002;28;20164;-45
2022/07/04 02:37:05;;;;;;;13.43;8.00;;;9.40;99.90;;;;;;5049913;28;20092;-46
2022/07/04 02:39:31;;;;;;;13.25;7.43;;;9.40;99.90;;;;;;5049856;28;20068;-46
2022/07/04 02:41:56;;;;;;;12.82;7.80;;;10.30;99.90;;;;;;5049448;28;20499;-46
2022/07/04 02:44:22;;;;;;;15.35;8.27;;;9.40;99.90;;;;;;5049469;28;20076;-46
2022/07/04 02:46:48;;;;;;;14.73;7.65;;;9.40;99.90;;;;;;5049492;28;20130;-46
2022/07/04 02:49:13;;;;;;;19.83;10.23;;;9.40;99.90;;;;;;5049619;28;20052;-48
2022/07/04 02:51:39;;;;;;;14.73;8.68;;;9.20;99.90;;;;;;5049702;28;20524;-47
2022/07/04 02:54:05;;;;;;;18.90;9.75;;;10.00;99.90;;;;;;5048945;28;20135;-47
2022/07/04 02:56:31;;;;;;;18.17;10.35;;;9.40;99.90;;;;;;5048575;28;20051;-46
2022/07/04 02:58:56;;;;;;;18.75;9.90;;;9.50;99.90;;;;;;5048824;28;20446;-47
2022/07/04 03:01:22;;;;;;;16.48;9.73;;;9.50;99.90;;;;;;5049564;28;20126;-46
2022/07/04 03:03:48;;;;;;;24.27;11.98;;;9.50;99.90;;;;;;5048955;28;20041;-46
2022/07/04 03:06:14;;;;;;;19.60;11.30;;;9.60;99.90;;;;;;5049132;28;20040;-46
2022/07/04 03:08:40;;;;;;;26.63;13.32;;;9.60;99.90;;;;;;5049166;28;20142;-48
2022/07/04 03:11:06;;;;;;;21.92;10.75;;;9.50;99.90;;;;;;5048264;28;20470;-46
2022/07/04 03:13:32;;;;;;;23.77;12.15;;;9.50;99.90;;;;;;5049043;28;20045;-45
2022/07/04 03:15:58;;;;;;;21.67;11.18;;;9.60;99.90;;;;;;5049264;28;20052;-46
2022/07/04 03:18:24;;;;;;;22.40;13.20;;;9.60;99.90;;;;;;5048997;28;20508;-46
2022/07/04 03:20:49;;;;;;;23.10;12.40;;;9.50;99.90;;;;;;5049052;28;20550;-47
2022/07/04 03:23:15;;;;;;;18.60;12.27;;;9.50;99.90;;;;;;5049223;28;20041;-46
2022/07/04 03:25:41;;;;;;;20.10;12.45;;;10.20;99.90;;;;;;5049367;28;20076;-46
2022/07/04 03:28:08;;;;;;;29.83;13.82;;;9.60;99.90;;;;;;5048780;28;20142;-48
2022/07/04 03:30:34;;;;;;;24.05;13.90;;;9.90;99.90;;;;;;5048834;28;20049;-46
2022/07/04 03:33:00;;;;;;;33.42;14.73;;;9.20;99.90;;;;;;5048928;28;20048;-46
2022/07/04 03:35:25;;;;;;;29.33;14.63;;;9.40;99.90;;;;;;5047734;28;20458;-46
2022/07/04 03:37:51;;;;;;;39.63;16.10;;;9.90;99.90;;;;;;5049057;28;20394;-46
2022/07/04 03:40:18;;;;;;;33.80;15.13;;;9.40;99.90;;;;;;5049119;28;20568;-47
2022/07/04 03:42:44;;;;;;;30.98;15.23;;;9.80;99.90;;;;;;5049182;28;20040;-46
2022/07/04 03:45:10;;;;;;;29.75;14.00;;;9.40;99.90;;;;;;5048651;28;20075;-46
2022/07/04 03:47:36;;;;;;;26.77;13.20;;;9.40;99.90;;;;;;5049149;28;20099;-46
2022/07/04 03:50:02;;;;;;;32.55;15.27;;;9.40;99.90;;;;;;5048728;28;20433;-46
2022/07/04 03:52:28;;;;;;;48.75;17.10;;;9.50;99.90;;;;;;5049039;28;20091;-47
2022/07/04 03:54:54;;;;;;;27.83;13.43;;;9.40;99.90;;;;;;5047276;28;20069;-46
2022/07/04 03:57:19;;;;;;;26.92;13.57;;;9.50;99.90;;;;;;5048421;28;20075;-47
2022/07/04 03:59:45;;;;;;;27.17;14.65;;;9.50;99.90;;;;;;5048531;28;20041;-46
2022/07/04 04:02:10;;;;;;;43.40;14.88;;;10.30;99.90;;;;;;5048351;28;20041;-46
2022/07/04 04:07:21;;;;;;;27.60;14.02;;;10.60;99.90;;;;;;5047171;28;20395;-47
2022/07/04 04:09:46;;;;;;;31.55;15.98;;;9.70;99.90;;;;;;5047456;28;20056;-46
2022/07/04 04:12:12;;;;;;;26.88;15.40;;;9.90;99.90;;;;;;5048156;28;20048;-46
2022/07/04 04:14:38;;;;;;;23.63;13.80;;;9.90;99.90;;;;;;5048123;28;20380;-46
2022/07/04 04:17:04;;;;;;;38.22;17.35;;;11.00;99.90;;;;;;5048190;28;20053;-46
2022/07/04 04:19:29;;;;;;;21.52;15.10;;;10.20;99.90;;;;;;5048318;28;20049;-46
2022/07/04 04:21:55;;;;;;;47.63;19.88;;;11.00;99.90;;;;;;5048495;28;20462;-46
2022/07/04 04:24:21;;;;;;;45.63;21.08;;;10.50;99.90;;;;;;5048061;28;20066;-47
2022/07/04 04:26:47;;;;;;;33.28;19.17;;;10.70;99.90;;;;;;5048498;28;20044;-46
2022/07/04 04:29:12;;;;;;;23.63;15.98;;;11.40;99.90;;;;;;5048082;28;20106;-46
2022/07/04 04:31:38;;;;;;;18.08;14.27;;;11.20;99.90;;;;;;5048354;28;20048;-47
2022/07/04 04:34:04;;;;;;;18.58;14.27;;;11.40;99.90;;;;;;5047817;28;20041;-47
2022/07/04 04:36:29;;;;;;;21.50;14.93;;;11.60;99.90;;;;;;5048452;28;20051;-46
2022/07/04 04:38:55;;;;;;;18.40;14.38;;;11.80;99.90;;;;;;5048363;28;20094;-48
2022/07/04 04:41:21;;;;;;;19.10;13.68;;;11.90;99.90;;;;;;5047919;28;20041;-46
2022/07/04 04:43:46;;;;;;;20.52;13.70;;;12.80;99.90;;;;;;5047862;28;20041;-46
2022/07/04 04:46:12;;;;;;;16.13;13.57;;;13.00;99.90;;;;;;5047489;28;20098;-47
2022/07/04 04:48:38;;;;;;;17.17;13.82;;;12.40;99.90;;;;;;5047454;28;20071;-47
2022/07/04 04:51:03;;;;;;;16.83;13.95;;;12.40;99.90;;;;;;5047461;28;20048;-47
2022/07/04 04:53:29;;;;;;;14.90;12.75;;;12.80;99.90;;;;;;5047620;28;20130;-47
2022/07/04 04:55:56;;;;;;;17.88;14.18;;;12.50;99.90;;;;;;5047449;28;20128;-46
2022/07/04 04:58:22;;;;;;;16.58;12.57;;;12.60;99.90;;;;;;5047497;28;20037;-46
2022/07/04 05:00:49;;;;;;;15.30;12.68;;;12.90;99.90;;;;;;5047651;28;20099;-46
2022/07/04 05:03:18;;;;;;;22.05;14.30;;;13.20;99.90;;;;;;5045820;28;20634;-47
2022/07/04 05:05:45;;;;;;;19.58;15.02;;;13.20;99.90;;;;;;5047471;28;20033;-46
2022/07/04 05:08:12;;;;;;;16.10;13.85;;;13.40;99.90;;;;;;5047113;28;20048;-47
2022/07/04 05:10:38;;;;;;;16.40;11.73;;;13.70;99.90;;;;;;5046523;28;20064;-46
2022/07/04 05:13:04;;;;;;;12.38;11.05;;;13.70;99.90;;;;;;5047461;28;20335;-47
2022/07/04 05:15:31;;;;;;;20.17;12.68;;;13.70;99.90;;;;;;5047336;28;20156;-47
2022/07/04 05:17:56;;;;;;;12.20;10.95;;;13.80;99.90;;;;;;5047404;28;20041;-47
2022/07/04 05:20:22;;;;;;;12.95;11.38;;;13.80;99.90;;;;;;5048356;28;20063;-46
2022/07/04 05:22:48;;;;;;;17.65;11.68;;;13.90;99.90;;;;;;5051285;28;20051;-48
2022/07/04 05:25:13;;;;;;;14.55;11.48;;;14.30;99.90;;;;;;5050789;28;20406;-46
2022/07/04 05:27:39;;;;;;;14.85;12.60;;;14.60;99.90;;;;;;5051199;28;20037;-47
2022/07/04 05:30:06;;;;;;;13.20;11.75;;;14.30;99.90;;;;;;5051049;28;20040;-47
2022/07/04 05:32:31;;;;;;;13.35;11.40;;;14.50;99.90;;;;;;5051058;28;20076;-47
2022/07/04 05:34:58;;;;;;;15.30;12.50;;;14.70;99.90;;;;;;5051342;28;20088;-47
2022/07/04 05:37:23;;;;;;;15.30;12.23;;;14.90;99.90;;;;;;5050577;28;20051;-49
2022/07/04 05:39:49;;;;;;;12.00;10.75;;;15.00;99.90;;;;;;5049236;28;20048;-47
2022/07/04 05:42:15;;;;;;;11.68;8.95;;;15.20;99.90;;;;;;5050763;28;20090;-48
2022/07/04 05:44:41;;;;;;;13.27;10.15;;;15.60;99.90;;;;;;5051136;28;20036;-47
2022/07/04 05:47:06;;;;;;;12.82;9.27;;;15.90;99.90;;;;;;5050507;28;20553;-47
2022/07/04 05:49:32;;;;;;;15.30;9.77;;;17.00;99.90;;;;;;5050852;28;20029;-48
2022/07/04 05:51:58;;;;;;;13.68;8.77;;;18.70;99.90;;;;;;5050775;28;20053;-47
2022/07/04 05:54:24;;;;;;;8.57;7.07;;;19.30;99.90;;;;;;5050774;28;20490;-47
2022/07/04 05:56:49;;;;;;;10.77;8.07;;;20.10;99.90;;;;;;5050650;28;20509;-49
2022/07/04 05:59:15;;;;;;;8.38;7.53;;;20.30;99.90;;;;;;5050381;28;20118;-48
2022/07/04 06:01:41;;;;;;;9.95;6.95;;;20.20;99.90;;;;;;5050632;28;20071;-49
2022/07/04 06:04:06;;;;;;;10.15;6.15;;;19.80;99.90;;;;;;5050483;28;20052;-47
2022/07/04 06:06:34;;;;;;;9.75;6.38;;;19.40;99.90;;;;;;5050405;28;20040;-48
2022/07/04 06:09:00;;;;;;;7.50;5.43;;;19.30;99.90;;;;;;5050775;28;20044;-49
2022/07/04 06:11:26;;;;;;;8.50;5.68;;;19.40;99.90;;;;;;5049782;28;20061;-47
2022/07/04 06:13:52;;;;;;;6.18;3.92;;;20.60;99.90;;;;;;5051194;28;20102;-48
2022/07/04 06:16:18;;;;;;;5.20;3.90;;;22.20;99.90;;;;;;5050812;28;20494;-49
2022/07/04 06:18:43;;;;;;;5.95;3.88;;;24.00;99.90;;;;;;5050978;28;20433;-49
2022/07/04 06:21:09;;;;;;;4.30;2.88;;;25.60;99.80;;;;;;5050113;28;20072;-51
2022/07/04 06:23:35;;;;;;;5.60;3.10;;;26.80;94.50;;;;;;5050512;28;20044;-49
2022/07/04 06:26:02;;;;;;;5.07;3.15;;;27.70;90.80;;;;;;5050833;28;20900;-50
2022/07/04 06:28:27;;;;;;;4.35;2.30;;;27.90;88.50;;;;;;5050307;28;20041;-51
2022/07/04 06:30:55;;;;;;;3.75;2.00;;;27.50;88.50;;;;;;5050182;28;20067;-50
2022/07/04 06:33:21;;;;;;;6.30;2.10;;;25.90;91.80;;;;;;5047749;28;20063;-49
2022/07/04 06:36:05;;;;;;;5.97;2.45;;;25.90;90.90;;;;;;5050294;28;20045;-51
2022/07/04 06:38:30;;;;;;;5.97;2.30;;;25.00;92.00;;;;;;5049699;28;20044;-53
2022/07/04 06:40:57;;;;;;;5.05;2.13;;;24.50;92.90;;;;;;5050268;28;20045;-48
2022/07/04 06:43:24;;;;;;;5.55;2.20;;;23.90;93.10;;;;;;5049829;28;20128;-48
2022/07/04 06:45:50;;;;;;;7.15;2.30;;;23.40;93.20;;;;;;5050355;28;20438;-52
2022/07/04 06:48:16;;;;;;;4.50;1.92;;;22.90;93.90;;;;;;5049755;28;20045;-48
2022/07/04 06:50:42;;;;;;;10.25;2.28;;;22.80;94.00;;;;;;5050018;28;20036;-50
2022/07/04 06:53:09;;;;;;;5.47;2.00;;;22.30;94.20;;;;;;5049960;28;20544;-48
2022/07/04 06:55:40;;;;;;;7.18;1.65;;;24.00;92.10;;;;;;5049679;28;20041;-50
2022/07/04 06:58:07;;;;;;;4.88;1.27;;;25.80;91.00;;;;;;5049960;28;20542;-51
2022/07/04 07:00:33;;;;;;;6.60;1.63;;;27.50;89.10;;;;;;5049852;28;20047;-51
2022/07/04 07:03:00;;;;;;;3.80;1.10;;;28.80;82.50;;;;;;5050087;28;20503;-53
2022/07/04 07:05:27;;;;;;;3.72;1.50;;;30.00;76.70;;;;;;5049882;28;20123;-53
2022/07/04 07:07:54;;;;;;;6.38;1.10;;;31.40;73.10;;;;;;5049724;28;20056;-53
2022/07/04 07:10:21;;;;;;;5.40;1.30;;;32.20;69.90;;;;;;5048473;28;20554;-53
2022/07/04 07:12:47;;;;;;;4.00;0.90;;;33.00;67.20;;;;;;5049632;28;20831;-53
2022/07/04 07:15:13;;;;;;;4.03;1.08;;;33.80;66.40;;;;;;5049670;28;20389;-54
2022/07/04 07:17:40;;;;;;;3.90;0.85;;;34.40;63.10;;;;;;5049714;28;20049;-53
2022/07/04 07:20:06;;;;;;;5.63;1.40;;;34.80;61.00;;;;;;5049380;28;20390;-53
2022/07/04 07:22:32;;;;;;;5.20;1.48;;;35.20;61.10;;;;;;5049473;28;20044;-54
2022/07/04 07:24:58;;;;;;;3.20;1.13;;;35.80;60.40;;;;;;5049208;28;20110;-54
2022/07/04 07:27:24;;;;;;;5.25;0.98;;;36.20;59.40;;;;;;5048395;28;20368;-54
2022/07/04 07:29:49;;;;;;;3.70;0.88;;;36.60;58.30;;;;;;5048417;28;20063;-54
2022/07/04 07:32:15;;;;;;;5.78;0.93;;;36.90;56.20;;;;;;5048481;28;20048;-54
2022/07/04 07:34:41;;;;;;;4.88;1.20;;;37.00;55.20;;;;;;5048683;28;20040;-54
2022/07/04 07:37:07;;;;;;;2.28;0.80;;;37.10;55.10;;;;;;5048575;28;20041;-55
2022/07/04 07:39:33;;;;;;;5.10;1.05;;;37.40;55.50;;;;;;5046395;28;20453;-54
2022/07/04 07:41:58;;;;;;;4.35;1.02;;;37.70;54.80;;;;;;5048722;28;20049;-55
2022/07/04 07:44:24;;;;;;;3.13;0.85;;;37.80;54.50;;;;;;5047856;28;20037;-55
2022/07/04 07:46:50;;;;;;;4.10;0.80;;;37.50;53.20;;;;;;5047903;28;20053;-54
2022/07/04 07:49:16;;;;;;;4.57;0.90;;;36.90;53.00;;;;;;5048134;28;20458;-55
2022/07/04 07:51:42;;;;;;;4.13;1.27;;;37.30;52.50;;;;;;5048133;28;20052;-55
2022/07/04 07:54:07;;;;;;;4.43;1.05;;;38.20;52.50;;;;;;5047095;28;20084;-55
2022/07/04 07:56:33;;;;;;;5.53;1.05;;;38.60;50.10;;;;;;5048039;28;20047;-55
2022/07/04 07:58:58;;;;;;;4.15;0.85;;;38.60;49.70;;;;;;5048171;28;20102;-54
2022/07/04 08:01:24;;;;;;;4.32;0.80;;;37.20;50.80;;;;;;5048073;28;20041;-52
2022/07/04 08:06:34;;;;;;;4.20;1.40;;;32.90;53.10;;;;;;5048025;28;20051;-53
2022/07/04 08:09:00;;;;;;;3.95;1.08;;;32.60;54.30;;;;;;5047995;28;20410;-53
2022/07/04 08:11:26;;;;;;;2.40;0.47;;;33.50;55.50;;;;;;5047344;28;20479;-54
2022/07/04 08:13:52;;;;;;;3.90;0.68;;;33.80;55.40;;;;;;5048000;28;20509;-53
2022/07/04 08:16:18;;;;;;;5.72;0.90;;;33.80;55.00;;;;;;5047868;28;20566;-53
2022/07/04 08:18:44;;;;;;;3.35;0.60;;;33.40;54.90;;;;;;5048034;28;20037;-53
2022/07/04 08:21:09;;;;;;;4.00;0.70;;;33.70;54.50;;;;;;5048396;28;20398;-53
2022/07/04 08:23:36;;;;;;;5.18;0.60;;;34.40;54.70;;;;;;5047863;28;20033;-54
2022/07/04 08:26:03;;;;;;;5.05;0.70;;;35.60;53.70;;;;;;5048285;28;20166;-54
2022/07/04 08:28:30;;;;;;;5.63;0.82;;;36.50;52.50;;;;;;5047767;28;20049;-54
2022/07/04 08:30:56;;;;;;;3.53;0.47;;;37.10;51.30;;;;;;5047584;28;20441;-55
2022/07/04 08:33:22;;;;;;;3.60;0.40;;;37.10;49.90;;;;;;5047520;28;20391;-53
2022/07/04 08:35:48;;;;;;;4.65;0.65;;;35.50;49.90;;;;;;5047223;28;20095;-56
2022/07/04 08:38:16;;;;;;;3.10;0.50;;;34.50;50.70;;;;;;5047889;28;20075;-56
2022/07/04 08:40:42;;;;;;;3.38;0.57;;;34.20;52.80;;;;;;5030847;28;20474;-57
2022/07/04 08:43:13;;;;;;;2.92;0.50;;;35.10;53.20;;;;;;5044582;28;20131;-56
2022/07/04 08:45:40;;;;;;;4.18;0.60;;;36.10;51.60;;;;;;5045286;28;20083;-56
2022/07/04 08:48:08;;;;;;;4.53;0.60;;;36.90;50.30;;;;;;5045166;28;20391;-57
2022/07/04 08:50:40;;;;;;;2.50;0.50;;;37.80;49.50;;;;;;5045092;28;20115;-56
2022/07/04 08:53:30;;;;;;;3.38;0.40;;;38.70;47.90;;;;;;5044618;28;20526;-56
2022/07/04 08:58:42;;;;;;;4.57;0.60;;;39.60;45.80;;;;;;5049287;28;20102;-46
2022/07/04 09:01:17;;;;;;;5.15;0.85;;;40.20;46.20;;;;;;5050806;28;20395;-46
2022/07/04 09:03:44;;;;;;;2.22;0.50;;;40.20;46.10;;;;;;5048774;28;20524;-46
2022/07/04 09:06:13;;;;;;;2.75;0.47;;;40.40;44.90;;;;;;5049562;28;20053;-46
2022/07/04 09:08:40;;;;;;;3.47;0.63;;;40.60;44.50;;;;;;5049572;28;20509;-51
2022/07/04 09:11:06;;;;;;;2.80;0.60;;;40.30;43.20;;;;;;5048849;28;20064;-46
2022/07/04 09:13:32;;;;;;;4.03;0.57;;;39.10;43.10;;;;;;5048039;28;20410;-46
2022/07/04 09:15:59;;;;;;;4.03;0.50;;;38.10;44.20;;;;;;5049137;28;20089;-45
2022/07/04 09:18:31;;;;;;;2.80;0.35;;;37.80;45.40;;;;;;5047250;28;20546;-44
2022/07/04 09:20:59;;;;;;;3.65;0.47;;;37.30;44.80;;;;;;5048786;28;20270;-47
2022/07/04 09:23:29;;;;;;;2.00;0.30;;;36.60;45.60;;;;;;5048946;28;20041;-45
2022/07/04 09:26:18;;;;;;;4.90;0.35;;;35.10;47.00;;;;;;5048647;28;20475;-45
2022/07/04 09:28:57;;;;;;;5.28;0.45;;;33.30;48.70;;;;;;5049132;28;20063;-45
2022/07/04 09:31:28;;;;;;;2.60;0.40;;;31.50;50.00;;;;;;5048466;28;20506;-46
2022/07/04 09:33:54;;;;;;;1.80;0.20;;;29.80;52.40;;;;;;5048883;28;20056;-43
2022/07/04 09:36:25;;;;;;;2.50;0.30;;;28.40;54.90;;;;;;5049211;28;20060;-46
2022/07/04 09:39:11;;;;;;;;;;;27.30;57.20;;;;;;5048537;28;20072;-44
2022/07/04 09:41:51;;;;;;;2.47;0.30;;;26.20;58.10;;;;;;5029340;28;20413;-43
2022/07/04 09:44:17;;;;;;;4.20;0.47;;;25.10;61.50;;;;;;5048759;28;20044;-46
2022/07/04 09:46:43;;;;;;;3.20;0.38;;;24.90;69.70;;;;;;5048734;28;20155;-44
2022/07/04 09:49:10;;;;;;;2.58;0.40;;;26.10;64.60;;;;;;5049162;28;20052;-45
2022/07/04 09:51:44;;;;;;;3.30;0.40;;;27.80;63.20;;;;;;5048360;28;20047;-45
2022/07/04 09:54:27;;;;;;;1.45;0.30;;;28.40;60.50;;;;;;5048293;28;20152;-45
2022/07/04 09:56:55;;;;;;;5.15;0.40;;;28.50;60.00;;;;;;5048131;28;20047;-46
2022/07/04 09:59:22;;;;;;;2.95;0.32;;;29.60;59.40;;;;;;5049394;28;20119;-47
2022/07/04 10:01:48;;;;;;;4.70;0.32;;;30.70;58.20;;;;;;5049560;28;20048;-46
2022/07/04 10:04:14;;;;;;;3.92;0.30;;;32.00;55.00;;;;;;5048522;28;20402;-56
2022/07/04 10:06:41;;;;;;;2.40;0.13;;;33.00;52.80;;;;;;5047670;28;20045;-57
2022/07/04 10:09:13;;;;;;;1.13;0.20;;;34.10;52.10;;;;;;5044718;28;20390;-45
2022/07/04 10:11:40;;;;;;;2.05;0.10;;;35.90;50.50;;;;;;5045186;28;20059;-53
2022/07/04 10:14:08;;;;;;;3.08;0.10;;;36.00;49.20;;;;;;5046589;28;20186;-56
2022/07/04 10:16:35;;;;;;;1.38;0.10;;;36.50;47.30;;;;;;5046485;28;20051;-50
2022/07/04 10:19:01;;;;;;;1.50;0.20;;;37.20;47.10;;;;;;5046319;28;20498;-52
2022/07/04 10:21:27;;;;;;;2.42;0.17;;;37.30;46.50;;;;;;5046538;28;20037;-50
2022/07/04 10:23:53;;;;;;;1.33;0.20;;;36.40;45.70;;;;;;5046223;28;20048;-51
2022/07/04 10:26:20;;;;;;;2.28;0.10;;;35.90;46.30;;;;;;5047171;28;20475;-52
2022/07/04 10:28:49;;;;;;;2.13;0.20;;;35.80;47.50;;;;;;5046581;28;20041;-46
2022/07/04 10:31:16;;;;;;;1.35;0.20;;;36.10;47.10;;;;;;5046284;28;20183;-47
2022/07/04 10:33:43;;;;;;;0.63;0.10;;;36.20;46.00;;;;;;5046360;28;20055;-45
2022/07/04 10:36:20;;;;;;;1.90;0.20;;;35.90;45.70;;;;;;5046639;28;20049;-48
2022/07/04 10:38:53;;;;;;;1.00;0.10;;;34.10;46.40;;;;;;5045852;28;20060;-46
2022/07/04 10:41:23;;;;;;;1.73;0.20;;;33.90;45.80;;;;;;5028666;28;20052;-46
2022/07/04 10:43:53;;;;;;;1.35;0.10;;;32.40;45.60;;;;;;5046331;28;20037;-46
2022/07/04 10:46:36;;;;;;;0.85;0.13;;;30.90;47.50;;;;;;5046742;28;20398;-53
2022/07/04 10:49:20;;;;;;;3.63;0.25;;;29.80;50.10;;;;;;5046805;28;20049;-50
2022/07/04 10:52:06;;;;;;;1.20;0.10;;;29.60;52.40;;;;;;5046502;28;20049;-52
2022/07/04 10:54:34;;;;;;;2.00;0.20;;;29.80;53.30;;;;;;5046690;28;20118;-45
2022/07/04 10:57:10;;;;;;;2.50;0.30;;;29.10;52.90;;;;;;5045161;28;20065;-48
2022/07/04 10:59:35;;;;;;;1.73;0.20;;;28.20;53.20;;;;;;5046655;28;20045;-46
2022/07/04 11:02:07;;;;;;;1.58;0.10;;;27.50;54.30;;;;;;5047670;28;20052;-44
2022/07/04 11:04:58;;;;;;;1.55;0.10;;;26.60;55.30;;;;;;5047772;28;20036;-48
2022/07/04 11:07:29;;;;;;;3.95;0.30;;;26.00;57.60;;;;;;5045419;28;20303;-49
2022/07/04 11:10:13;;;;;;;2.55;0.40;;;25.50;63.70;;;;;;5045582;28;20863;-47
2022/07/04 11:12:54;;;;;;;1.42;0.45;;;25.00;62.50;;;;;;5045881;28;20766;-46
2022/07/04 11:15:43;;;;;;;1.65;0.20;;;24.80;62.90;;;;;;5045704;28;20056;-41
2022/07/04 11:18:11;;;;;;;4.32;0.30;;;24.70;64.70;;;;;;5041931;28;20140;-42
2022/07/04 11:20:42;;;;;;;2.38;0.30;;;24.50;65.10;;;;;;5046450;28;20041;-45
2022/07/04 11:23:10;;;;;;;3.13;0.30;;;24.30;67.30;;;;;;5045796;28;20045;-45
2022/07/04 11:25:37;;;;;;;1.35;0.25;;;25.50;68.70;;;;;;5046276;28;20705;-39
2022/07/04 11:28:26;;;;;;;2.97;0.30;;;24.00;68.60;;;;;;5046521;28;20124;-38
2022/07/04 11:30:54;;;;;;;6.53;0.30;;;24.00;69.60;;;;;;5045967;28;20044;-40
2022/07/04 11:33:25;;;;;;;1.50;0.30;;;24.00;68.50;;;;;;5028179;28;20119;-41
2022/07/04 11:36:11;;;;;;;1.75;0.20;;;24.10;68.60;;;;;;5045137;28;20052;-38
2022/07/04 11:38:56;;;;;;;2.10;0.30;;;24.40;68.60;;;;;;5045375;28;20037;-43
2022/07/04 11:47:11;;;;;;;0.85;0.30;;;24.10;67.80;;;;;;5050051;28;20136;-47
2022/07/04 11:49:52;;;;;;;2.58;0.30;;;23.70;67.20;;;;;;5049061;28;20040;-47
2022/07/04 11:52:20;;;;;;;2.25;0.30;;;23.50;69.00;;;;;;5048850;28;20033;-44
2022/07/04 11:54:48;;;;;;;1.70;0.30;;;23.50;70.30;;;;;;5048448;28;20045;-46
2022/07/04 11:57:16;;;;;;;1.48;0.30;;;23.20;70.70;;;;;;5048548;28;20041;-48
2022/07/04 11:59:43;;;;;;;1.15;0.20;;;23.20;72.00;;;;;;5048287;28;20041;-48
2022/07/04 12:02:14;;;;;;;2.13;0.30;;;23.30;73.10;;;;;;5048539;28;20056;-54
2022/07/04 12:04:41;;;;;;;3.37;0.70;;;23.30;73.80;;;;;;5049382;28;20075;-47
2022/07/04 12:07:12;;;;;;;1.33;0.20;;;23.40;73.30;;;;;;5047461;28;20274;-49
2022/07/04 12:09:38;;;;;;;2.45;0.20;;;23.40;73.40;;;;;;5047273;28;20487;-44
2022/07/04 12:12:05;;;;;;;2.30;0.30;;;23.10;72.80;;;;;;5046063;28;20151;-46
2022/07/04 12:14:30;;;;;;;2.38;0.28;;;22.90;72.90;;;;;;5047563;28;20049;-42
2022/07/04 12:17:14;;;;;;;4.18;0.20;;;22.70;73.60;;;;;;5047282;28;20045;-44
2022/07/04 12:19:58;;;;;;;1.77;0.40;;;22.90;74.50;;;;;;5047413;28;20048;-47
2022/07/04 12:22:38;;;;;;;1.45;0.28;;;23.00;75.10;;;;;;5047177;28;20136;-45
2022/07/04 12:25:06;;;;;;;2.92;0.30;;;23.00;75.10;;;;;;5047170;28;20044;-45
2022/07/04 12:27:33;;;;;;;1.42;0.20;;;22.90;74.10;;;;;;5047350;28;20383;-45
2022/07/04 12:29:59;;;;;;;1.80;0.55;;;23.00;74.70;;;;;;5047343;28;20052;-46
2022/07/04 12:32:48;;;;;;;2.97;0.60;;;23.00;74.80;;;;;;5048183;28;20132;-49
2022/07/04 12:35:55;;;;;;;2.65;0.20;;;23.00;75.50;;;;;;5047092;28;20035;-60
2022/07/04 12:38:29;;;;;;;2.67;0.32;;;23.10;75.90;;;;;;5025366;28;20136;-59
2022/07/04 12:41:00;;;;;;;2.05;0.30;;;23.30;75.70;;;;;;5009563;28;20049;-59
2022/07/04 12:43:51;;;;;;;5.07;0.40;;;23.30;74.30;;;;;;5030355;28;20144;-59
2022/07/04 12:46:33;;;;;;;3.33;0.38;;;23.20;72.50;;;;;;5048370;28;20040;-58
2022/07/04 12:49:02;;;;;;;2.05;0.30;;;23.20;72.90;;;;;;5047284;28;20048;-59
2022/07/04 12:51:33;;;;;;;2.72;0.20;;;23.30;73.80;;;;;;5048475;28;20051;-58
2022/07/04 12:54:06;;;;;;;0.82;0.20;;;23.50;73.50;;;;;;5049197;28;20052;-59
2022/07/04 12:56:38;;;;;;;2.08;0.20;;;23.30;73.00;;;;;;5048822;28;20044;-59
2022/07/04 12:59:06;;;;;;;0.57;0.20;;;23.10;73.30;;;;;;5050021;28;20128;-58
2022/07/04 13:01:32;;;;;;;3.90;0.40;;;23.20;74.00;;;;;;5049037;28;20163;-58
2022/07/04 13:03:59;;;;;;;2.17;0.20;;;23.10;74.00;;;;;;5050363;28;20043;-58
2022/07/04 13:06:26;;;;;;;2.05;0.30;;;23.10;74.50;;;;;;5048693;28;20049;-59